createdAt,value
2016-12-15T00:00:42.360Z,1008.81
2016-12-15T00:01:52.694Z,1008.83
2016-12-15T00:03:02.408Z,1008.84
2016-12-15T00:04:12.432Z,1008.92
2016-12-15T00:05:22.768Z,1008.95
2016-12-15T00:06:32.790Z,1008.98
2016-12-15T00:07:42.821Z,1008.98
2016-12-15T00:08:53.153Z,1008.99
2016-12-15T00:10:03.205Z,1008.99
2016-12-15T00:11:13.224Z,1009.04
2016-12-15T00:12:23.220Z,1009
2016-12-15T00:13:32.310Z,1008.99
2016-12-15T00:14:42.330Z,1009.03
2016-12-15T00:15:52.673Z,1009.04
2016-12-15T00:17:02.726Z,1009.05
2016-12-15T00:18:13.067Z,1009.03
2016-12-15T00:19:23.074Z,1009.06
2016-12-15T00:20:33.104Z,1009.05
2016-12-15T00:21:42.817Z,1009.08
2016-12-15T00:22:52.826Z,1009.13
2016-12-15T00:24:02.838Z,1009.12
2016-12-15T00:25:13.167Z,1009.13
2016-12-15T00:26:23.502Z,1009.17
2016-12-15T00:27:33.834Z,1009.18
2016-12-15T00:28:43.872Z,1009.19
2016-12-15T00:29:53.899Z,1009.2
2016-12-15T00:31:04.214Z,1009.22
2016-12-15T00:32:14.218Z,1009.2
2016-12-15T00:33:24.231Z,1009.19
2016-12-15T00:34:34.552Z,1009.24
2016-12-15T00:35:44.908Z,1009.27
2016-12-15T00:36:54.929Z,1009.26
2016-12-15T00:38:05.269Z,1009.28
2016-12-15T00:39:15.265Z,1009.24
2016-12-15T00:40:25.576Z,1009.23
2016-12-15T00:41:35.891Z,1009.27
2016-12-15T00:42:45.914Z,1009.25
2016-12-15T00:43:55.315Z,1009.33
2016-12-15T00:45:05.038Z,1009.32
2016-12-15T00:46:14.123Z,1009.35
2016-12-15T00:47:24.165Z,1009.34
2016-12-15T00:48:34.180Z,1009.37
2016-12-15T00:49:43.883Z,1009.42
2016-12-15T00:50:54.206Z,1009.38
2016-12-15T00:52:04.546Z,1009.45
2016-12-15T00:53:14.264Z,1009.44
2016-12-15T00:54:24.585Z,1009.41
2016-12-15T00:55:34.938Z,1009.47
2016-12-15T00:56:45.266Z,1009.51
2016-12-15T00:57:55.610Z,1009.52
2016-12-15T00:59:05.637Z,1009.5
2016-12-15T01:00:15.684Z,1009.52
2016-12-15T01:01:25.733Z,1009.55
2016-12-15T01:02:35.744Z,1009.57
2016-12-15T01:03:45.445Z,1009.55
2016-12-15T01:04:55.781Z,1009.58
2016-12-15T01:06:06.102Z,1009.57
2016-12-15T01:07:15.815Z,1009.57
2016-12-15T01:08:26.171Z,1009.62
2016-12-15T01:09:36.503Z,1009.61
2016-12-15T01:10:46.839Z,1009.54
2016-12-15T01:11:57.181Z,1009.52
2016-12-15T01:13:07.216Z,1009.51
2016-12-15T01:14:17.535Z,1009.53
2016-12-15T01:15:27.854Z,1009.51
2016-12-15T01:16:38.179Z,1009.55
2016-12-15T01:17:47.885Z,1009.56
2016-12-15T01:18:57.922Z,1009.58
2016-12-15T01:20:08.320Z,1009.63
2016-12-15T01:21:18.327Z,1009.62
2016-12-15T01:22:28.353Z,1009.61
2016-12-15T01:23:38.675Z,1009.65
2016-12-15T01:24:48.690Z,1009.65
2016-12-15T01:25:59.022Z,1009.68
2016-12-15T01:27:09.348Z,1009.7
2016-12-15T01:28:19.737Z,1009.71
2016-12-15T01:29:29.748Z,1009.71
2016-12-15T01:30:39.761Z,1009.68
2016-12-15T01:31:49.153Z,1009.72
2016-12-15T01:32:59.478Z,1009.73
2016-12-15T01:34:09.824Z,1009.72
2016-12-15T01:35:20.149Z,1009.72
2016-12-15T01:36:30.492Z,1009.75
2016-12-15T01:37:40.527Z,1009.82
2016-12-15T01:38:50.862Z,1009.79
2016-12-15T01:40:00.899Z,1009.74
2016-12-15T01:41:11.230Z,1009.79
2016-12-15T01:42:21.264Z,1009.78
2016-12-15T01:43:30.973Z,1009.78
2016-12-15T01:44:41.297Z,1009.79
2016-12-15T01:45:51.352Z,1009.76
2016-12-15T01:47:01.378Z,1009.74
2016-12-15T01:48:11.400Z,1009.72
2016-12-15T01:49:21.426Z,1009.76
2016-12-15T01:50:31.454Z,1009.8
2016-12-15T01:51:41.179Z,1009.78
2016-12-15T01:52:50.890Z,1009.76
2016-12-15T01:54:01.232Z,1009.77
2016-12-15T01:55:11.244Z,1009.81
2016-12-15T01:56:21.561Z,1009.79
2016-12-15T01:57:31.909Z,1009.86
2016-12-15T01:58:41.930Z,1009.87
2016-12-15T01:59:52.256Z,1009.88
2016-12-15T02:01:02.302Z,1009.86
2016-12-15T02:02:12.305Z,1009.9
2016-12-15T02:03:22.011Z,1009.93
2016-12-15T02:04:32.338Z,1009.93
2016-12-15T02:05:42.358Z,1009.93
2016-12-15T02:06:52.673Z,1009.89
2016-12-15T02:08:02.698Z,1009.88
2016-12-15T02:09:12.701Z,1009.88
2016-12-15T02:10:22.708Z,1009.91
2016-12-15T02:11:33.078Z,1009.97
2016-12-15T02:12:42.789Z,1009.95
2016-12-15T02:13:53.114Z,1009.97
2016-12-15T02:15:03.444Z,1009.96
2016-12-15T02:16:13.462Z,1009.96
2016-12-15T02:17:23.473Z,1009.94
2016-12-15T02:18:33.499Z,1009.95
2016-12-15T02:19:43.515Z,1009.97
2016-12-15T02:20:53.538Z,1009.97
2016-12-15T02:22:03.886Z,1009.96
2016-12-15T02:23:13.923Z,1009.96
2016-12-15T02:24:24.259Z,1009.99
2016-12-15T02:25:34.599Z,1009.94
2016-12-15T02:26:44.948Z,1009.97
2016-12-15T02:27:55.317Z,1010.01
2016-12-15T02:29:05.656Z,1009.97
2016-12-15T02:30:15.666Z,1009.95
2016-12-15T02:31:25.363Z,1009.94
2016-12-15T02:32:35.369Z,1009.92
2016-12-15T02:33:45.697Z,1010
2016-12-15T02:34:55.712Z,1010.05
2016-12-15T02:36:05.405Z,1010.04
2016-12-15T02:37:15.102Z,1010.08
2016-12-15T02:38:25.423Z,1010.1
2016-12-15T02:39:35.745Z,1010.12
2016-12-15T02:40:46.071Z,1010.11
2016-12-15T02:41:55.768Z,1010.12
2016-12-15T02:43:05.780Z,1010.11
2016-12-15T02:44:15.797Z,1010.07
2016-12-15T02:45:25.509Z,1010.14
2016-12-15T02:46:35.220Z,1010.06
2016-12-15T02:47:45.547Z,1010.05
2016-12-15T02:48:55.878Z,1010.05
2016-12-15T02:50:05.600Z,1010.09
2016-12-15T02:51:15.302Z,1010.07
2016-12-15T02:52:25.638Z,1010.04
2016-12-15T02:53:35.986Z,1010.03
2016-12-15T02:54:46.011Z,1010.03
2016-12-15T02:55:55.733Z,1010.04
2016-12-15T02:57:05.445Z,1010.03
2016-12-15T02:58:15.452Z,1010.01
2016-12-15T02:59:25.153Z,1010.01
2016-12-15T03:00:34.866Z,1009.99
2016-12-15T03:01:44.876Z,1009.97
2016-12-15T03:33:01.801Z,1010.1
2016-12-15T03:34:11.813Z,1010.18
2016-12-15T03:35:21.831Z,1010.15
2016-12-15T03:36:31.852Z,1010.21
2016-12-15T03:37:42.182Z,1010.17
2016-12-15T03:38:52.486Z,1010.19
2016-12-15T03:40:02.212Z,1010.27
2016-12-15T03:41:11.295Z,1010.24
2016-12-15T03:42:21.616Z,1010.25
2016-12-15T03:43:31.303Z,1010.25
2016-12-15T03:44:41.619Z,1010.24
2016-12-15T03:45:51.945Z,1010.24
2016-12-15T03:47:02.267Z,1010.28
2016-12-15T03:48:12.589Z,1010.31
2016-12-15T03:49:22.605Z,1010.32
2016-12-15T03:50:32.620Z,1010.38
2016-12-15T03:51:42.988Z,1010.38
2016-12-15T03:52:53.315Z,1010.42
2016-12-15T03:54:03.021Z,1010.44
2016-12-15T03:55:12.735Z,1010.47
2016-12-15T03:56:23.061Z,1010.51
2016-12-15T03:57:33.058Z,1010.53
2016-12-15T03:58:43.095Z,1010.56
2016-12-15T03:59:53.433Z,1010.6
2016-12-15T04:01:03.771Z,1010.58
2016-12-15T04:02:14.109Z,1010.6
2016-12-15T04:03:24.428Z,1010.59
2016-12-15T04:04:34.437Z,1010.61
2016-12-15T04:05:44.779Z,1010.63
2016-12-15T04:06:55.097Z,1010.64
2016-12-15T04:08:05.143Z,1010.59
2016-12-15T04:09:15.164Z,1010.62
2016-12-15T04:10:25.177Z,1010.6
2016-12-15T04:11:35.200Z,1010.6
2016-12-15T04:12:45.540Z,1010.57
2016-12-15T04:13:55.553Z,1010.57
2016-12-15T04:15:05.589Z,1010.58
2016-12-15T04:16:15.301Z,1010.57
2016-12-15T04:17:25.637Z,1010.64
2016-12-15T04:18:35.333Z,1010.61
2016-12-15T04:19:45.663Z,1010.61
2016-12-15T04:20:55.992Z,1010.62
2016-12-15T04:22:06.014Z,1010.66
2016-12-15T04:23:16.377Z,1010.73
2016-12-15T04:24:26.436Z,1010.74
2016-12-15T04:25:36.783Z,1010.72
2016-12-15T04:26:46.831Z,1010.75
2016-12-15T04:27:57.172Z,1010.76
2016-12-15T04:29:06.874Z,1010.78
2016-12-15T04:30:16.910Z,1010.79
2016-12-15T04:31:26.616Z,1010.76
2016-12-15T04:32:36.648Z,1010.78
2016-12-15T04:33:46.669Z,1010.75
2016-12-15T04:34:56.671Z,1010.75
2016-12-15T04:36:06.694Z,1010.79
2016-12-15T04:37:17.019Z,1010.76
2016-12-15T04:38:27.346Z,1010.78
2016-12-15T04:39:37.357Z,1010.8
2016-12-15T04:40:47.377Z,1010.81
2016-12-15T04:41:57.701Z,1010.79
2016-12-15T04:43:07.418Z,1010.82
2016-12-15T04:44:17.429Z,1010.8
2016-12-15T04:45:27.132Z,1010.81
2016-12-15T04:46:36.827Z,1010.79
2016-12-15T04:47:47.190Z,1010.78
2016-12-15T04:48:57.209Z,1010.79
2016-12-15T04:50:07.539Z,1010.78
2016-12-15T04:51:17.871Z,1010.74
2016-12-15T04:52:28.196Z,1010.76
2016-12-15T04:53:37.583Z,1010.81
2016-12-15T04:54:47.911Z,1010.86
2016-12-15T04:55:57.927Z,1010.84
2016-12-15T04:57:07.928Z,1010.88
2016-12-15T04:58:17.939Z,1010.85
2016-12-15T04:59:27.650Z,1010.91
2016-12-15T05:00:37.974Z,1010.89
2016-12-15T05:01:47.980Z,1010.95
2016-12-15T05:02:58.307Z,1010.94
2016-12-15T05:04:08.323Z,1010.89
2016-12-15T05:05:18.354Z,1010.91
2016-12-15T05:06:28.363Z,1010.87
2016-12-15T05:07:38.724Z,1010.86
2016-12-15T05:08:48.428Z,1010.88
2016-12-15T05:09:58.777Z,1010.88
2016-12-15T05:11:07.867Z,1010.88
2016-12-15T05:12:17.267Z,1010.86
2016-12-15T05:13:27.602Z,1010.9
2016-12-15T05:14:37.927Z,1010.91
2016-12-15T05:15:48.244Z,1010.92
2016-12-15T05:16:58.572Z,1010.93
2016-12-15T05:18:08.909Z,1010.9
2016-12-15T05:19:18.980Z,1010.86
2016-12-15T05:20:28.725Z,1010.85
2016-12-15T05:21:38.448Z,1010.79
2016-12-15T05:22:48.788Z,1010.82
2016-12-15T05:23:58.805Z,1010.79
2016-12-15T05:25:08.834Z,1010.79
2016-12-15T05:26:18.229Z,1010.76
2016-12-15T05:27:28.567Z,1010.77
2016-12-15T05:28:38.593Z,1010.8
2016-12-15T05:29:48.929Z,1010.79
2016-12-15T05:30:59.260Z,1010.8
2016-12-15T05:32:09.267Z,1010.8
2016-12-15T05:33:19.595Z,1010.8
2016-12-15T05:34:29.912Z,1010.79
2016-12-15T05:35:40.238Z,1010.81
2016-12-15T05:36:49.960Z,1010.84
2016-12-15T05:38:00.282Z,1010.77
2016-12-15T05:39:10.613Z,1010.81
2016-12-15T05:40:20.651Z,1010.88
2016-12-15T05:41:30.983Z,1010.88
2016-12-15T05:42:41.311Z,1010.88
2016-12-15T05:43:51.316Z,1010.86
2016-12-15T05:45:01.646Z,1010.84
2016-12-15T05:46:11.696Z,1010.82
2016-12-15T05:47:21.405Z,1010.79
2016-12-15T05:48:31.417Z,1010.84
2016-12-15T05:49:41.428Z,1010.83
2016-12-15T05:50:51.754Z,1010.84
2016-12-15T05:52:01.758Z,1010.87
2016-12-15T05:53:12.092Z,1010.84
2016-12-15T05:54:21.802Z,1010.83
2016-12-15T05:55:31.524Z,1010.83
2016-12-15T05:56:41.558Z,1010.8
2016-12-15T05:57:51.576Z,1010.83
2016-12-15T05:59:01.305Z,1010.8
2016-12-15T06:00:11.319Z,1010.78
2016-12-15T06:01:21.055Z,1010.76
2016-12-15T06:02:31.411Z,1010.82
2016-12-15T06:03:41.432Z,1010.83
2016-12-15T06:04:51.445Z,1010.83
2016-12-15T06:06:01.792Z,1010.78
2016-12-15T06:07:11.505Z,1010.81
2016-12-15T06:08:21.852Z,1010.82
2016-12-15T06:09:31.559Z,1010.83
2016-12-15T06:10:41.884Z,1010.85
2016-12-15T06:11:51.606Z,1010.84
2016-12-15T06:13:01.303Z,1010.86
2016-12-15T06:14:11.014Z,1010.87
2016-12-15T06:15:21.040Z,1010.9
2016-12-15T06:16:31.068Z,1010.92
2016-12-15T06:17:41.404Z,1010.86
2016-12-15T06:18:51.720Z,1010.87
2016-12-15T06:20:02.284Z,1010.9
2016-12-15T06:21:11.985Z,1010.86
2016-12-15T06:22:21.715Z,1010.87
2016-12-15T06:23:31.404Z,1010.87
2016-12-15T06:24:41.734Z,1010.87
2016-12-15T06:25:52.090Z,1010.91
2016-12-15T06:27:02.432Z,1010.91
2016-12-15T06:28:12.784Z,1010.97
2016-12-15T06:29:22.187Z,1011
2016-12-15T06:30:32.527Z,1010.99
2016-12-15T06:31:42.572Z,1010.99
2016-12-15T06:32:52.895Z,1011
2016-12-15T06:34:03.257Z,1011.05
2016-12-15T06:35:13.585Z,1011.01
2016-12-15T06:36:23.613Z,1011.04
2016-12-15T06:37:33.951Z,1011.01
2016-12-15T06:38:44.279Z,1011.06
2016-12-15T06:39:54.601Z,1011.05
2016-12-15T06:41:04.321Z,1011.01
2016-12-15T06:42:14.649Z,1011.06
2016-12-15T06:43:24.974Z,1011.13
2016-12-15T06:44:35.297Z,1011.14
2016-12-15T06:45:44.998Z,1011.14
2016-12-15T06:46:54.717Z,1011.12
2016-12-15T06:48:04.736Z,1011.09
2016-12-15T06:49:15.063Z,1011.12
2016-12-15T06:50:25.083Z,1011.13
2016-12-15T06:51:34.806Z,1011.06
2016-12-15T06:52:44.511Z,1011.06
2016-12-15T06:53:54.535Z,1011.11
2016-12-15T06:55:04.866Z,1011.13
2016-12-15T06:56:15.203Z,1011.17
2016-12-15T06:57:25.220Z,1011.12
2016-12-15T06:58:34.300Z,1011.14
2016-12-15T06:59:44.629Z,1011.16
2016-12-15T07:00:55.003Z,1011.19
2016-12-15T07:02:05.020Z,1011.24
2016-12-15T07:03:14.718Z,1011.28
2016-12-15T07:04:25.075Z,1011.35
2016-12-15T07:05:35.406Z,1011.37
2016-12-15T07:06:45.417Z,1011.39
2016-12-15T07:07:55.112Z,1011.41
2016-12-15T07:09:04.822Z,1011.42
2016-12-15T07:10:15.146Z,1011.41
2016-12-15T07:11:25.468Z,1011.4
2016-12-15T07:12:35.175Z,1011.39
2016-12-15T07:13:45.511Z,1011.4
2016-12-15T07:14:55.522Z,1011.41
2016-12-15T07:16:04.925Z,1011.42
2016-12-15T07:17:15.236Z,1011.39
2016-12-15T07:18:25.568Z,1011.48
2016-12-15T07:19:35.585Z,1011.48
2016-12-15T07:20:45.907Z,1011.48
2016-12-15T07:21:55.914Z,1011.54
2016-12-15T07:23:05.911Z,1011.56
2016-12-15T07:24:15.937Z,1011.62
2016-12-15T07:25:25.333Z,1011.57
2016-12-15T07:26:35.698Z,1011.58
2016-12-15T07:27:45.710Z,1011.61
2016-12-15T07:28:56.033Z,1011.63
2016-12-15T07:30:05.740Z,1011.63
2016-12-15T07:31:15.455Z,1011.65
2016-12-15T07:32:25.488Z,1011.63
2016-12-15T07:33:35.510Z,1011.7
2016-12-15T07:34:45.845Z,1011.67
2016-12-15T07:35:55.868Z,1011.67
2016-12-15T07:37:05.581Z,1011.7
2016-12-15T07:38:15.920Z,1011.66
2016-12-15T07:39:25.938Z,1011.74
2016-12-15T07:40:36.269Z,1011.75
2016-12-15T07:41:46.277Z,1011.75
2016-12-15T07:42:56.288Z,1011.74
2016-12-15T07:44:06.009Z,1011.75
2016-12-15T07:45:16.032Z,1011.7
2016-12-15T07:46:25.424Z,1011.67
2016-12-15T07:47:35.136Z,1011.7
2016-12-15T07:48:45.451Z,1011.73
2016-12-15T07:49:55.456Z,1011.78
2016-12-15T07:51:05.794Z,1011.77
2016-12-15T07:52:16.133Z,1011.79
2016-12-15T07:53:25.829Z,1011.81
2016-12-15T07:54:35.551Z,1011.83
2016-12-15T07:55:45.877Z,1011.89
2016-12-15T07:56:56.198Z,1011.85
2016-12-15T07:58:06.535Z,1011.88
2016-12-15T07:59:16.252Z,1011.87
2016-12-15T08:00:26.563Z,1011.89
2016-12-15T08:01:36.566Z,1011.85
2016-12-15T08:02:46.892Z,1011.88
2016-12-15T08:03:56.905Z,1011.87
2016-12-15T08:05:07.251Z,1011.93
2016-12-15T08:06:17.572Z,1011.93
2016-12-15T08:07:27.905Z,1012.01
2016-12-15T08:08:37.948Z,1012
2016-12-15T08:09:47.668Z,1012.03
2016-12-15T08:10:58.000Z,1012.04
2016-12-15T08:12:08.371Z,1012.07
2016-12-15T08:13:18.703Z,1012.11
2016-12-15T08:14:28.754Z,1012.09
2016-12-15T08:15:39.087Z,1012.07
2016-12-15T08:16:49.413Z,1012.12
2016-12-15T08:17:59.790Z,1012.1
2016-12-15T08:19:09.806Z,1012.11
2016-12-15T08:20:19.823Z,1012.13
2016-12-15T08:21:29.841Z,1012.12
2016-12-15T08:22:39.567Z,1012.12
2016-12-15T08:23:49.895Z,1012.11
2016-12-15T08:24:59.617Z,1012.1
2016-12-15T08:26:09.678Z,1012.1
2016-12-15T08:27:20.023Z,1012.14
2016-12-15T08:28:30.037Z,1012.13
2016-12-15T08:29:40.093Z,1012.13
2016-12-15T08:30:50.425Z,1012.15
2016-12-15T08:32:00.447Z,1012.16
2016-12-15T08:33:10.804Z,1012.15
2016-12-15T08:34:21.143Z,1012.08
2016-12-15T08:35:31.491Z,1012.1
2016-12-15T08:36:41.820Z,1012.07
2016-12-15T08:37:52.150Z,1012.15
2016-12-15T08:39:02.519Z,1012.11
2016-12-15T08:40:12.853Z,1012.12
2016-12-15T08:41:23.182Z,1012.17
2016-12-15T08:42:33.510Z,1012.23
2016-12-15T08:43:43.856Z,1012.24
2016-12-15T08:44:53.876Z,1012.24
2016-12-15T08:46:04.200Z,1012.26
2016-12-15T08:47:14.537Z,1012.26
2016-12-15T08:48:24.252Z,1012.27
2016-12-15T08:49:34.580Z,1012.28
2016-12-15T08:50:44.894Z,1012.36
2016-12-15T08:51:54.609Z,1012.28
2016-12-15T08:53:04.626Z,1012.35
2016-12-15T08:54:14.948Z,1012.29
2016-12-15T08:55:24.653Z,1012.34
2016-12-15T08:56:34.680Z,1012.38
2016-12-15T08:57:44.726Z,1012.38
2016-12-15T08:58:54.742Z,1012.38
2016-12-15T09:00:04.785Z,1012.37
2016-12-15T09:01:15.157Z,1012.42
2016-12-15T09:02:25.489Z,1012.41
2016-12-15T09:03:35.830Z,1012.44
2016-12-15T09:04:46.172Z,1012.46
2016-12-15T09:05:56.196Z,1012.43
2016-12-15T09:07:06.531Z,1012.41
2016-12-15T09:08:16.886Z,1012.43
2016-12-15T09:09:26.887Z,1012.42
2016-12-15T09:10:37.245Z,1012.43
2016-12-15T09:11:47.575Z,1012.45
2016-12-15T09:12:57.604Z,1012.46
2016-12-15T09:14:07.627Z,1012.46
2016-12-15T09:15:17.634Z,1012.43
2016-12-15T09:16:27.352Z,1012.46
2016-12-15T09:17:37.682Z,1012.45
2016-12-15T09:18:47.713Z,1012.44
2016-12-15T09:19:57.739Z,1012.46
2016-12-15T09:21:08.067Z,1012.45
2016-12-15T09:22:18.393Z,1012.45
2016-12-15T09:23:28.407Z,1012.49
2016-12-15T09:24:38.756Z,1012.48
2016-12-15T09:25:48.769Z,1012.46
2016-12-15T09:26:59.114Z,1012.47
2016-12-15T09:28:09.446Z,1012.5
2016-12-15T09:29:19.765Z,1012.51
2016-12-15T09:30:29.470Z,1012.49
2016-12-15T09:31:39.782Z,1012.5
2016-12-15T09:32:49.488Z,1012.54
2016-12-15T09:33:59.836Z,1012.55
2016-12-15T09:35:09.862Z,1012.53
2016-12-15T09:36:19.906Z,1012.49
2016-12-15T09:37:29.943Z,1012.5
2016-12-15T09:38:40.282Z,1012.47
2016-12-15T09:39:49.989Z,1012.46
2016-12-15T09:41:00.021Z,1012.45
2016-12-15T09:42:10.053Z,1012.49
2016-12-15T09:43:20.382Z,1012.45
2016-12-15T09:44:30.703Z,1012.47
2016-12-15T09:45:40.724Z,1012.46
2016-12-15T09:46:51.104Z,1012.45
2016-12-15T09:48:01.461Z,1012.47
2016-12-15T09:49:11.497Z,1012.44
2016-12-15T09:50:21.506Z,1012.4
2016-12-15T09:51:31.535Z,1012.38
2016-12-15T09:52:41.549Z,1012.36
2016-12-15T09:53:51.900Z,1012.3
2016-12-15T09:55:02.248Z,1012.33
2016-12-15T09:56:11.969Z,1012.35
2016-12-15T09:57:22.296Z,1012.34
2016-12-15T09:58:32.308Z,1012.39
2016-12-15T09:59:42.644Z,1012.37
2016-12-15T10:00:52.963Z,1012.37
2016-12-15T10:02:02.983Z,1012.36
2016-12-15T10:03:12.693Z,1012.42
2016-12-15T10:04:23.026Z,1012.36
2016-12-15T10:05:33.345Z,1012.39
2016-12-15T10:06:43.697Z,1012.39
2016-12-15T10:07:54.051Z,1012.39
2016-12-15T10:09:04.114Z,1012.38
2016-12-15T10:10:14.140Z,1012.43
2016-12-15T10:11:23.232Z,1012.45
2016-12-15T10:12:33.266Z,1012.46
2016-12-15T10:13:43.001Z,1012.48
2016-12-15T10:14:52.731Z,1012.48
2016-12-15T10:16:02.758Z,1012.46
2016-12-15T10:17:12.785Z,1012.44
2016-12-15T10:18:23.132Z,1012.41
2016-12-15T10:19:33.149Z,1012.46
2016-12-15T10:20:43.484Z,1012.49
2016-12-15T10:21:53.817Z,1012.47
2016-12-15T10:23:03.838Z,1012.51
2016-12-15T10:24:13.575Z,1012.49
2016-12-15T10:25:23.917Z,1012.5
2016-12-15T10:26:34.258Z,1012.49
2016-12-15T10:27:44.590Z,1012.51
2016-12-15T10:28:54.931Z,1012.52
2016-12-15T10:30:04.965Z,1012.57
2016-12-15T10:31:15.300Z,1012.57
2016-12-15T10:32:25.015Z,1012.55
2016-12-15T10:33:35.358Z,1012.53
2016-12-15T10:34:45.460Z,1012.51
2016-12-15T10:35:55.843Z,1012.5
2016-12-15T10:37:05.882Z,1012.47
2016-12-15T10:38:15.296Z,1012.49
2016-12-15T10:39:25.624Z,1012.48
2016-12-15T10:40:35.644Z,1012.48
2016-12-15T10:41:45.657Z,1012.46
2016-12-15T10:42:56.027Z,1012.48
2016-12-15T10:44:06.383Z,1012.51
2016-12-15T10:45:16.400Z,1012.47
2016-12-15T10:46:26.737Z,1012.44
2016-12-15T10:47:36.767Z,1012.42
2016-12-15T10:48:46.503Z,1012.42
2016-12-15T10:49:56.527Z,1012.36
2016-12-15T10:51:06.559Z,1012.4
2016-12-15T10:52:16.937Z,1012.43
2016-12-15T10:53:27.274Z,1012.42
2016-12-15T10:54:37.334Z,1012.39
2016-12-15T10:55:47.663Z,1012.37
2016-12-15T10:56:57.373Z,1012.38
2016-12-15T10:58:07.404Z,1012.36
2016-12-15T10:59:17.141Z,1012.33
2016-12-15T11:00:27.153Z,1012.32
2016-12-15T11:01:37.185Z,1012.32
2016-12-15T11:02:47.547Z,1012.33
2016-12-15T11:03:57.258Z,1012.28
2016-12-15T11:05:07.293Z,1012.31
2016-12-15T11:06:17.624Z,1012.27
2016-12-15T11:07:27.962Z,1012.28
2016-12-15T11:08:37.986Z,1012.27
2016-12-15T11:09:47.701Z,1012.25
2016-12-15T11:10:57.750Z,1012.24
2016-12-15T11:12:07.774Z,1012.25
2016-12-15T11:13:17.796Z,1012.24
2016-12-15T11:14:27.518Z,1012.2
2016-12-15T11:15:37.854Z,1012.24
2016-12-15T11:16:47.562Z,1012.22
2016-12-15T11:17:57.892Z,1012.21
2016-12-15T11:19:07.920Z,1012.18
2016-12-15T11:20:18.267Z,1012.21
2016-12-15T11:21:28.287Z,1012.25
2016-12-15T11:22:37.999Z,1012.22
2016-12-15T11:23:48.330Z,1012.2
2016-12-15T11:24:58.395Z,1012.19
2016-12-15T11:26:08.421Z,1012.16
2016-12-15T11:27:18.132Z,1012.14
2016-12-15T11:28:28.463Z,1012.13
2016-12-15T11:29:38.486Z,1012.16
2016-12-15T11:30:48.516Z,1012.17
2016-12-15T11:31:58.543Z,1012.17
2016-12-15T11:33:08.286Z,1012.21
2016-12-15T11:34:18.660Z,1012.18
2016-12-15T11:35:28.687Z,1012.16
2016-12-15T11:36:39.025Z,1012.18
2016-12-15T11:37:49.366Z,1012.18
2016-12-15T11:38:59.408Z,1012.21
2016-12-15T11:40:09.775Z,1012.2
2016-12-15T11:41:20.150Z,1012.2
2016-12-15T11:42:30.598Z,1012.19
2016-12-15T11:43:40.632Z,1012.18
2016-12-15T11:44:51.058Z,1012.22
2016-12-15T11:46:01.099Z,1012.19
2016-12-15T11:47:11.411Z,1012.15
2016-12-15T11:48:21.892Z,1012.15
2016-12-15T11:49:32.240Z,1012.06
2016-12-15T11:50:42.264Z,1012.07
2016-12-15T11:51:52.788Z,1012.06
2016-12-15T11:53:02.815Z,1012.04
2016-12-15T11:54:12.911Z,1012.02
2016-12-15T11:55:23.270Z,1012.04
2016-12-15T11:56:33.743Z,1012
2016-12-15T11:57:43.789Z,1012.02
2016-12-15T11:58:54.152Z,1012.03
2016-12-15T12:00:04.498Z,1012
2016-12-15T12:01:14.799Z,1012.03
2016-12-15T12:02:24.969Z,1011.94
2016-12-15T12:03:35.012Z,1012.02
2016-12-15T12:04:45.342Z,1011.95
2016-12-15T12:05:55.386Z,1011.99
2016-12-15T12:07:05.761Z,1011.97
2016-12-15T12:08:15.783Z,1011.99
2016-12-15T12:09:25.704Z,1012
2016-12-15T12:10:36.064Z,1012.01
2016-12-15T12:11:46.088Z,1012
2016-12-15T12:12:56.502Z,1012.02
2016-12-15T12:14:06.845Z,1012.06
2016-12-15T12:15:17.279Z,1012.04
2016-12-15T12:16:27.710Z,1012.02
2016-12-15T12:17:37.793Z,1012.02
2016-12-15T12:18:47.191Z,1012.01
2016-12-15T12:19:57.568Z,1012
2016-12-15T12:21:07.607Z,1012
2016-12-15T12:22:17.954Z,1012.03
2016-12-15T12:23:27.986Z,1012.01
2016-12-15T12:24:38.364Z,1012
2016-12-15T12:25:48.482Z,1012
2016-12-15T12:26:58.202Z,1011.97
2016-12-15T12:28:08.563Z,1011.99
2016-12-15T12:29:18.720Z,1011.95
2016-12-15T12:30:29.017Z,1011.98
2016-12-15T12:31:39.398Z,1012.01
2016-12-15T12:32:49.424Z,1012
2016-12-15T12:33:59.456Z,1011.97
2016-12-15T12:35:09.498Z,1012.03
2016-12-15T12:36:19.845Z,1012.03
2016-12-15T12:37:30.183Z,1012
2016-12-15T12:38:40.189Z,1012.02
2016-12-15T12:39:50.568Z,1012
2016-12-15T12:41:00.901Z,1011.98
2016-12-15T12:42:10.938Z,1012
2016-12-15T12:43:20.994Z,1011.97
2016-12-15T12:44:31.024Z,1011.98
2016-12-15T12:45:41.402Z,1011.98
2016-12-15T12:46:51.739Z,1012
2016-12-15T12:48:02.071Z,1011.96
2016-12-15T12:49:12.406Z,1012
2016-12-15T12:50:22.434Z,1011.98
2016-12-15T12:51:32.782Z,1012
2016-12-15T12:52:43.154Z,1011.96
2016-12-15T12:53:53.611Z,1011.93
2016-12-15T12:55:03.953Z,1011.95
2016-12-15T12:56:13.989Z,1011.91
2016-12-15T12:57:24.324Z,1011.95
2016-12-15T12:58:34.042Z,1011.94
2016-12-15T12:59:44.100Z,1011.94
2016-12-15T13:00:54.441Z,1011.97
2016-12-15T13:02:04.579Z,1011.96
2016-12-15T13:03:14.918Z,1011.96
2016-12-15T13:04:24.951Z,1011.97
2016-12-15T13:05:35.296Z,1011.99
2016-12-15T13:06:45.006Z,1012.01
2016-12-15T13:07:55.045Z,1011.97
2016-12-15T13:09:05.078Z,1012
2016-12-15T13:10:15.208Z,1012.03
2016-12-15T13:11:25.284Z,1012.06
2016-12-15T13:12:35.639Z,1012.05
2016-12-15T13:13:45.990Z,1012.09
2016-12-15T13:14:56.380Z,1012.08
2016-12-15T13:16:06.413Z,1012.12
2016-12-15T13:17:16.137Z,1012.12
2016-12-15T13:18:26.108Z,1012.16
2016-12-15T13:19:35.843Z,1012.13
2016-12-15T13:20:45.873Z,1012.15
2016-12-15T13:21:56.265Z,1012.2
2016-12-15T13:23:06.667Z,1012.2
2016-12-15T13:24:17.054Z,1012.16
2016-12-15T13:25:26.779Z,1012.19
2016-12-15T13:26:36.502Z,1012.19
2016-12-15T13:27:46.566Z,1012.16
2016-12-15T13:28:56.670Z,1012.16
2016-12-15T13:30:07.064Z,1012.21
2016-12-15T13:31:17.394Z,1012.16
2016-12-15T13:32:27.732Z,1012.22
2016-12-15T13:33:38.076Z,1012.2
2016-12-15T13:34:48.464Z,1012.17
2016-12-15T13:35:58.166Z,1012.21
2016-12-15T13:37:08.216Z,1012.23
2016-12-15T13:38:18.237Z,1012.21
2016-12-15T13:39:28.589Z,1012.22
2016-12-15T13:40:38.728Z,1012.23
2016-12-15T13:41:48.826Z,1012.23
2016-12-15T13:42:58.290Z,1012.21
2016-12-15T13:44:08.630Z,1012.14
2016-12-15T13:45:18.992Z,1012.14
2016-12-15T13:46:28.770Z,1012.16
2016-12-15T13:47:38.560Z,1012.12
2016-12-15T13:48:48.920Z,1012.12
2016-12-15T13:49:59.276Z,1012.14
2016-12-15T13:51:09.623Z,1012.18
2016-12-15T13:52:19.338Z,1012.17
2016-12-15T13:53:29.362Z,1012.16
2016-12-15T13:54:39.434Z,1012.16
2016-12-15T13:55:49.800Z,1012.16
2016-12-15T13:57:00.137Z,1012.19
2016-12-15T13:58:10.172Z,1012.2
2016-12-15T13:59:20.192Z,1012.18
2016-12-15T14:00:30.532Z,1012.17
2016-12-15T14:01:39.951Z,1012.19
2016-12-15T14:02:49.988Z,1012.17
2016-12-15T14:04:00.337Z,1012.12
2016-12-15T14:05:10.061Z,1012.14
2016-12-15T14:06:20.096Z,1012.15
2016-12-15T14:07:30.424Z,1012.14
2016-12-15T14:08:40.464Z,1012.17
2016-12-15T14:09:50.814Z,1012.15
2016-12-15T14:11:01.163Z,1012.13
2016-12-15T14:12:11.500Z,1012.16
2016-12-15T14:13:21.537Z,1012.21
2016-12-15T14:14:31.271Z,1012.19
2016-12-15T14:15:41.628Z,1012.18
2016-12-15T14:16:51.651Z,1012.17
2016-12-15T14:18:01.680Z,1012.21
2016-12-15T14:19:11.391Z,1012.15
2016-12-15T14:20:21.423Z,1012.15
2016-12-15T14:21:31.446Z,1012.14
2016-12-15T14:22:41.161Z,1012.16
2016-12-15T14:23:51.473Z,1012.15
2016-12-15T14:25:01.504Z,1012.15
2016-12-15T14:26:11.848Z,1012.18
2016-12-15T14:27:21.869Z,1012.16
2016-12-15T14:28:31.291Z,1012.13
2016-12-15T14:29:41.631Z,1012.12
2016-12-15T14:30:51.674Z,1012.14
2016-12-15T14:32:01.747Z,1012.15
2016-12-15T14:33:12.093Z,1012.16
2016-12-15T14:34:22.095Z,1012.18
2016-12-15T14:35:32.433Z,1012.19
2016-12-15T14:36:42.468Z,1012.17
2016-12-15T14:37:52.517Z,1012.17
2016-12-15T14:39:02.545Z,1012.2
2016-12-15T14:40:12.635Z,1012.21
2016-12-15T14:41:22.030Z,1012.21
2016-12-15T14:42:31.755Z,1012.23